OAL929 FMMI-FQNC
Flight info
| Callsign | OAL929 |
|---|---|
| Flight time | 1h 23m |
| Altitude | 38000 |
| Route | IKRAM DOBAR TIDAL GADNO |
| Aircraft | B738/M-V/N |
Departure
| Time | 2026-04-14 14:55 |
|---|---|
| Airport | Ivato International Airport (FMMI) |
Arrival
| Time | 2026-04-14 16:18 |
|---|---|
| Airport | Nacala International Airport (FQNC) |
| Time | Latitude | Longitude | Altitude | Speed | Heading |
|---|---|---|---|---|---|
| 2026-04-14 14:46 | -18.79774 | 47.46971 | 4188 ft | 0 kts | 325° |
| 2026-04-14 14:53 | -18.79740 | 47.46905 | 4190 ft | 29 kts | 295° |
| 2026-04-14 14:53 | -18.79666 | 47.46686 | 4196 ft | 30 kts | 288° |
| 2026-04-14 14:53 | -18.79580 | 47.46497 | 4202 ft | 28 kts | 304° |
| 2026-04-14 14:53 | -18.79518 | 47.46450 | 4204 ft | 0 kts | 8° |
| 2026-04-14 14:54 | -18.79491 | 47.46482 | 4203 ft | 22 kts | 76° |
| 2026-04-14 14:54 | -18.79550 | 47.46936 | 4190 ft | 101 kts | 99° |
| 2026-04-14 14:55 | -18.79697 | 47.47908 | 4191 ft | 164 kts | 99° |
| 2026-04-14 14:55 | -18.79879 | 47.49125 | 4852 ft | 176 kts | 100° |
| 2026-04-14 14:55 | -18.80540 | 47.50225 | 5670 ft | 180 kts | 150° |
| 2026-04-14 14:55 | -18.81785 | 47.50402 | 6530 ft | 196 kts | 191° |
| 2026-04-14 14:56 | -18.83425 | 47.47882 | 6916 ft | 252 kts | 276° |
| 2026-04-14 14:56 | -18.82757 | 47.46127 | 7088 ft | 272 kts | 313° |
| 2026-04-14 14:56 | -18.81285 | 47.44778 | 7443 ft | 287 kts | 324° |
| 2026-04-14 14:57 | -18.79858 | 47.43278 | 8105 ft | 294 kts | 304° |
| 2026-04-14 14:57 | -18.78978 | 47.41347 | 9017 ft | 291 kts | 288° |
| 2026-04-14 14:57 | -18.78461 | 47.39291 | 9924 ft | 289 kts | 282° |
| 2026-04-14 14:57 | -18.78089 | 47.37198 | 10616 ft | 295 kts | 279° |
| 2026-04-14 14:58 | -18.77723 | 47.34977 | 10792 ft | 320 kts | 283° |
| 2026-04-14 14:58 | -18.76866 | 47.32718 | 10963 ft | 343 kts | 294° |
| 2026-04-14 14:58 | -18.75957 | 47.30309 | 11109 ft | 363 kts | 288° |
| 2026-04-14 14:58 | -18.75189 | 47.27739 | 11556 ft | 371 kts | 286° |
| 2026-04-14 14:59 | -18.74442 | 47.25125 | 12171 ft | 374 kts | 286° |
| 2026-04-14 14:59 | -18.73678 | 47.22495 | 12810 ft | 376 kts | 286° |
| 2026-04-14 14:59 | -18.72888 | 47.19848 | 13408 ft | 380 kts | 286° |
| 2026-04-14 14:59 | -18.72074 | 47.17183 | 13993 ft | 384 kts | 287° |
| 2026-04-14 15:00 | -18.71242 | 47.14489 | 14498 ft | 388 kts | 287° |
| 2026-04-14 15:00 | -18.70408 | 47.11803 | 14968 ft | 392 kts | 287° |
| 2026-04-14 15:00 | -18.69553 | 47.09056 | 15431 ft | 396 kts | 287° |
| 2026-04-14 15:00 | -18.68688 | 47.06283 | 15891 ft | 401 kts | 287° |
| 2026-04-14 15:01 | -18.67839 | 47.03468 | 16333 ft | 405 kts | 286° |
| 2026-04-14 15:01 | -18.67065 | 47.00561 | 16783 ft | 409 kts | 284° |
| 2026-04-14 15:01 | -18.66343 | 46.97692 | 17213 ft | 412 kts | 284° |
| 2026-04-14 15:01 | -18.65613 | 46.94758 | 17658 ft | 415 kts | 285° |
| 2026-04-14 15:02 | -18.64870 | 46.91800 | 18093 ft | 418 kts | 285° |
| 2026-04-14 15:02 | -18.64116 | 46.88829 | 18519 ft | 421 kts | 285° |
| 2026-04-14 15:02 | -18.63351 | 46.85846 | 18886 ft | 423 kts | 285° |
| 2026-04-14 15:02 | -18.62576 | 46.82842 | 19259 ft | 425 kts | 285° |
| 2026-04-14 15:03 | -18.61794 | 46.79825 | 19640 ft | 428 kts | 285° |
| 2026-04-14 15:03 | -18.61008 | 46.76798 | 20016 ft | 430 kts | 285° |
| 2026-04-14 15:03 | -18.60226 | 46.73788 | 20372 ft | 432 kts | 285° |
| 2026-04-14 15:03 | -18.59421 | 46.70692 | 20714 ft | 435 kts | 285° |
| 2026-04-14 15:04 | -18.58619 | 46.67611 | 21044 ft | 438 kts | 285° |
| 2026-04-14 15:04 | -18.57810 | 46.64502 | 21384 ft | 440 kts | 285° |
| 2026-04-14 15:04 | -18.56998 | 46.61383 | 21718 ft | 443 kts | 285° |
| 2026-04-14 15:04 | -18.56181 | 46.58245 | 22050 ft | 445 kts | 285° |
| 2026-04-14 15:05 | -18.55359 | 46.55091 | 22356 ft | 448 kts | 285° |
| 2026-04-14 15:05 | -18.54531 | 46.51918 | 22663 ft | 450 kts | 285° |
| 2026-04-14 15:05 | -18.53696 | 46.48724 | 22970 ft | 453 kts | 285° |
| 2026-04-14 15:05 | -18.52858 | 46.45522 | 23281 ft | 455 kts | 285° |
| 2026-04-14 15:06 | -18.52013 | 46.42297 | 23578 ft | 457 kts | 285° |
| 2026-04-14 15:06 | -18.51165 | 46.39060 | 23842 ft | 460 kts | 285° |
| 2026-04-14 15:06 | -18.50324 | 46.35852 | 24100 ft | 461 kts | 285° |
| 2026-04-14 15:06 | -18.49468 | 46.32589 | 24362 ft | 462 kts | 285° |
| 2026-04-14 15:07 | -18.48610 | 46.29321 | 24625 ft | 464 kts | 285° |
| 2026-04-14 15:07 | -18.47749 | 46.26041 | 24875 ft | 466 kts | 285° |
| 2026-04-14 15:07 | -18.46884 | 46.22751 | 25119 ft | 467 kts | 286° |
| 2026-04-14 15:07 | -18.46014 | 46.19446 | 25372 ft | 469 kts | 286° |
| 2026-04-14 15:08 | -18.45141 | 46.16130 | 25612 ft | 470 kts | 286° |
| 2026-04-14 15:08 | -18.44266 | 46.12806 | 25859 ft | 472 kts | 286° |
| 2026-04-14 15:08 | -18.43385 | 46.09464 | 26103 ft | 473 kts | 286° |
| 2026-04-14 15:08 | -18.42801 | 46.07251 | 26253 ft | 475 kts | 286° |
| 2026-04-14 15:09 | -18.41915 | 46.03895 | 26483 ft | 476 kts | 286° |
| 2026-04-14 15:09 | -18.41024 | 46.00525 | 26714 ft | 478 kts | 286° |
| 2026-04-14 15:09 | -18.40133 | 45.97152 | 26940 ft | 480 kts | 286° |
| 2026-04-14 15:09 | -18.39236 | 45.93762 | 27162 ft | 481 kts | 286° |
| 2026-04-14 15:10 | -18.38336 | 45.90363 | 27382 ft | 483 kts | 286° |
| 2026-04-14 15:10 | -18.37430 | 45.86948 | 27594 ft | 485 kts | 286° |
| 2026-04-14 15:10 | -18.36523 | 45.83526 | 27801 ft | 486 kts | 286° |
| 2026-04-14 15:10 | -18.35612 | 45.80094 | 28031 ft | 487 kts | 286° |
| 2026-04-14 15:11 | -18.34698 | 45.76654 | 28264 ft | 488 kts | 286° |
| 2026-04-14 15:11 | -18.33783 | 45.73211 | 28481 ft | 489 kts | 286° |
| 2026-04-14 15:11 | -18.32865 | 45.69759 | 28688 ft | 491 kts | 286° |
| 2026-04-14 15:11 | -18.31945 | 45.66304 | 28952 ft | 490 kts | 286° |
| 2026-04-14 15:12 | -18.31025 | 45.62850 | 29297 ft | 489 kts | 286° |
| 2026-04-14 15:12 | -18.30118 | 45.59448 | 29650 ft | 487 kts | 286° |
| 2026-04-14 15:12 | -18.29205 | 45.56028 | 29975 ft | 486 kts | 286° |
| 2026-04-14 15:12 | -18.28289 | 45.52598 | 30237 ft | 486 kts | 286° |
| 2026-04-14 15:13 | -18.27373 | 45.49172 | 30509 ft | 485 kts | 286° |
| 2026-04-14 15:13 | -18.26463 | 45.45768 | 30827 ft | 483 kts | 286° |
| 2026-04-14 15:13 | -18.25555 | 45.42376 | 31162 ft | 481 kts | 286° |
| 2026-04-14 15:13 | -18.24649 | 45.38994 | 31458 ft | 480 kts | 286° |
| 2026-04-14 15:14 | -18.23744 | 45.35621 | 31722 ft | 479 kts | 286° |
| 2026-04-14 15:14 | -18.22840 | 45.32250 | 32000 ft | 478 kts | 286° |
| 2026-04-14 15:14 | -18.21937 | 45.28887 | 32316 ft | 477 kts | 286° |
| 2026-04-14 15:14 | -18.21037 | 45.25538 | 32642 ft | 475 kts | 286° |
| 2026-04-14 15:15 | -18.20141 | 45.22204 | 32965 ft | 473 kts | 286° |
| 2026-04-14 15:15 | -18.19246 | 45.18880 | 33266 ft | 472 kts | 286° |
| 2026-04-14 15:15 | -18.18353 | 45.15565 | 33581 ft | 470 kts | 286° |
| 2026-04-14 15:15 | -18.17476 | 45.12309 | 33905 ft | 468 kts | 286° |
| 2026-04-14 15:16 | -18.16589 | 45.09019 | 34175 ft | 467 kts | 285° |
| 2026-04-14 15:16 | -18.15706 | 45.05746 | 34424 ft | 465 kts | 285° |
| 2026-04-14 15:16 | -18.14821 | 45.02467 | 34698 ft | 463 kts | 285° |
| 2026-04-14 15:16 | -18.13942 | 44.99216 | 34971 ft | 461 kts | 285° |
| 2026-04-14 15:17 | -18.13065 | 44.95974 | 35203 ft | 461 kts | 285° |
| 2026-04-14 15:17 | -18.12188 | 44.92737 | 35404 ft | 460 kts | 285° |
| 2026-04-14 15:17 | -18.11309 | 44.89499 | 35624 ft | 460 kts | 285° |
| 2026-04-14 15:17 | -18.10435 | 44.86276 | 35865 ft | 458 kts | 285° |
| 2026-04-14 15:18 | -18.09562 | 44.83063 | 36124 ft | 457 kts | 285° |
| 2026-04-14 15:18 | -18.08692 | 44.79860 | 36368 ft | 455 kts | 284° |
| 2026-04-14 15:18 | -18.07823 | 44.76662 | 36566 ft | 454 kts | 284° |
| 2026-04-14 15:18 | -18.06956 | 44.73472 | 36767 ft | 454 kts | 284° |
| 2026-04-14 15:19 | -18.06089 | 44.70288 | 36988 ft | 453 kts | 284° |
| 2026-04-14 15:19 | -18.05224 | 44.67112 | 37212 ft | 451 kts | 284° |
| 2026-04-14 15:19 | -18.04360 | 44.63940 | 37406 ft | 451 kts | 284° |
| 2026-04-14 15:19 | -18.03506 | 44.60809 | 37599 ft | 450 kts | 284° |
| 2026-04-14 15:20 | -18.02645 | 44.57654 | 37793 ft | 449 kts | 284° |
| 2026-04-14 15:20 | -18.01786 | 44.54508 | 37992 ft | 448 kts | 284° |
| 2026-04-14 15:20 | -18.00058 | 44.48184 | 38010 ft | 450 kts | 284° |
| 2026-04-14 15:21 | -17.98331 | 44.41875 | 37996 ft | 447 kts | 284° |
| 2026-04-14 15:21 | -17.96611 | 44.35601 | 37984 ft | 446 kts | 283° |
| 2026-04-14 15:22 | -17.94897 | 44.29359 | 37969 ft | 444 kts | 284° |
| 2026-04-14 15:22 | -17.93199 | 44.23180 | 37973 ft | 443 kts | 283° |
| 2026-04-14 15:23 | -17.91490 | 44.16969 | 37976 ft | 443 kts | 283° |
| 2026-04-14 15:23 | -17.89779 | 44.10761 | 37996 ft | 443 kts | 283° |
| 2026-04-14 15:24 | -17.88061 | 44.04533 | 37994 ft | 444 kts | 283° |
| 2026-04-14 15:24 | -17.86335 | 43.98286 | 37980 ft | 446 kts | 283° |
| 2026-04-14 15:25 | -17.84603 | 43.92028 | 37971 ft | 448 kts | 283° |
| 2026-04-14 15:25 | -17.82864 | 43.85750 | 37982 ft | 449 kts | 283° |
| 2026-04-14 15:26 | -17.81115 | 43.79447 | 37992 ft | 450 kts | 283° |
| 2026-04-14 15:26 | -17.79372 | 43.73173 | 37976 ft | 451 kts | 283° |
| 2026-04-14 15:27 | -17.77610 | 43.66841 | 37980 ft | 452 kts | 283° |
| 2026-04-14 15:27 | -17.75845 | 43.60507 | 37990 ft | 452 kts | 283° |
| 2026-04-14 15:28 | -17.74079 | 43.54175 | 37976 ft | 452 kts | 283° |
| 2026-04-14 15:28 | -17.72311 | 43.47845 | 37995 ft | 451 kts | 283° |
| 2026-04-14 15:29 | -17.70545 | 43.41534 | 37976 ft | 451 kts | 283° |
| 2026-04-14 15:29 | -17.68781 | 43.35236 | 37999 ft | 449 kts | 283° |
| 2026-04-14 15:30 | -17.67020 | 43.28955 | 37978 ft | 449 kts | 283° |
| 2026-04-14 15:30 | -17.65260 | 43.22691 | 37995 ft | 447 kts | 283° |
| 2026-04-14 15:31 | -17.63504 | 43.16445 | 38006 ft | 446 kts | 283° |
| 2026-04-14 15:31 | -17.61747 | 43.10206 | 37985 ft | 446 kts | 283° |
| 2026-04-14 15:32 | -17.59993 | 43.03981 | 37990 ft | 445 kts | 283° |
| 2026-04-14 15:32 | -17.58239 | 42.97768 | 37999 ft | 444 kts | 283° |
| 2026-04-14 15:33 | -17.56484 | 42.91559 | 37977 ft | 444 kts | 283° |
| 2026-04-14 15:33 | -17.54728 | 42.85356 | 37983 ft | 444 kts | 283° |
| 2026-04-14 15:34 | -17.52970 | 42.79152 | 38004 ft | 444 kts | 283° |
| 2026-04-14 15:34 | -17.51209 | 42.72946 | 37999 ft | 444 kts | 283° |
| 2026-04-14 15:35 | -17.49458 | 42.66783 | 37978 ft | 444 kts | 283° |
| 2026-04-14 15:35 | -17.47692 | 42.60576 | 37978 ft | 445 kts | 283° |
| 2026-04-14 15:36 | -17.45926 | 42.54375 | 37995 ft | 444 kts | 283° |
| 2026-04-14 15:36 | -17.44156 | 42.48170 | 38007 ft | 444 kts | 283° |
| 2026-04-14 15:37 | -17.42386 | 42.41971 | 37998 ft | 444 kts | 283° |
| 2026-04-14 15:37 | -17.40615 | 42.35780 | 37975 ft | 444 kts | 283° |
| 2026-04-14 15:38 | -17.38842 | 42.29588 | 37988 ft | 444 kts | 283° |
| 2026-04-14 15:38 | -17.37069 | 42.23403 | 38015 ft | 442 kts | 283° |
| 2026-04-14 15:39 | -17.35306 | 42.17261 | 38014 ft | 442 kts | 283° |
| 2026-04-14 15:39 | -17.33535 | 42.11095 | 37986 ft | 441 kts | 283° |
| 2026-04-14 15:40 | -17.31768 | 42.04955 | 37971 ft | 441 kts | 283° |
| 2026-04-14 15:40 | -17.30001 | 41.98824 | 37998 ft | 440 kts | 283° |
| 2026-04-14 15:41 | -17.28246 | 41.92739 | 38035 ft | 438 kts | 283° |
| 2026-04-14 15:41 | -17.26480 | 41.86622 | 38036 ft | 438 kts | 283° |
| 2026-04-14 15:42 | -17.24715 | 41.80516 | 38003 ft | 438 kts | 283° |
| 2026-04-14 15:42 | -17.22907 | 41.74430 | 37961 ft | 441 kts | 288° |
| 2026-04-14 15:43 | -17.21303 | 41.71662 | 37938 ft | 452 kts | 308° |
| 2026-04-14 15:43 | -17.18973 | 41.69448 | 38076 ft | 457 kts | 320° |
| 2026-04-14 15:43 | -17.16091 | 41.67925 | 37906 ft | 471 kts | 338° |
| 2026-04-14 15:43 | -17.12989 | 41.66901 | 38121 ft | 467 kts | 338° |
| 2026-04-14 15:44 | -17.09870 | 41.65865 | 37968 ft | 471 kts | 338° |
| 2026-04-14 15:44 | -17.06757 | 41.64819 | 38045 ft | 470 kts | 338° |
| 2026-04-14 15:44 | -17.00514 | 41.62688 | 38022 ft | 472 kts | 337° |
| 2026-04-14 15:45 | -16.94251 | 41.60527 | 38016 ft | 474 kts | 337° |
| 2026-04-14 15:45 | -16.88001 | 41.58365 | 38011 ft | 476 kts | 337° |
| 2026-04-14 15:46 | -16.81700 | 41.56189 | 37998 ft | 478 kts | 337° |
| 2026-04-14 15:46 | -16.75387 | 41.54011 | 37987 ft | 479 kts | 337° |
| 2026-04-14 15:47 | -16.69060 | 41.51831 | 37998 ft | 479 kts | 337° |
| 2026-04-14 15:47 | -16.62720 | 41.49648 | 38012 ft | 479 kts | 337° |
| 2026-04-14 15:48 | -16.56384 | 41.47468 | 38003 ft | 479 kts | 337° |
| 2026-04-14 15:48 | -16.50053 | 41.45291 | 37983 ft | 479 kts | 337° |
| 2026-04-14 15:49 | -16.43778 | 41.43138 | 37966 ft | 464 kts | 337° |
| 2026-04-14 15:49 | -16.40759 | 41.42108 | 37950 ft | 450 kts | 336° |
| 2026-04-14 15:49 | -16.37821 | 41.41104 | 38003 ft | 441 kts | 336° |
| 2026-04-14 15:50 | -16.32000 | 41.39099 | 37991 ft | 446 kts | 336° |
| 2026-04-14 15:50 | -16.26025 | 41.37040 | 37996 ft | 453 kts | 336° |
| 2026-04-14 15:51 | -16.20047 | 41.34988 | 38021 ft | 457 kts | 336° |
| 2026-04-14 15:51 | -16.13978 | 41.32910 | 38010 ft | 460 kts | 336° |
| 2026-04-14 15:52 | -16.07884 | 41.30825 | 37981 ft | 462 kts | 336° |
| 2026-04-14 15:52 | -16.01826 | 41.28757 | 37982 ft | 454 kts | 336° |
| 2026-04-14 15:53 | -15.95858 | 41.26720 | 38020 ft | 449 kts | 336° |
| 2026-04-14 15:53 | -15.89918 | 41.24689 | 38003 ft | 448 kts | 336° |
| 2026-04-14 15:54 | -15.81079 | 41.21669 | 38028 ft | 447 kts | 336° |
| 2026-04-14 15:55 | -15.75131 | 41.19637 | 37991 ft | 453 kts | 336° |
| 2026-04-14 15:55 | -15.69097 | 41.17577 | 37972 ft | 460 kts | 336° |
| 2026-04-14 15:56 | -15.62997 | 41.15499 | 37991 ft | 464 kts | 336° |
| 2026-04-14 15:56 | -15.56881 | 41.13420 | 38000 ft | 459 kts | 336° |
| 2026-04-14 15:57 | -15.50888 | 41.11386 | 38016 ft | 451 kts | 336° |
| 2026-04-14 15:57 | -15.44922 | 41.09356 | 37987 ft | 450 kts | 336° |
| 2026-04-14 15:58 | -15.38980 | 41.07335 | 37971 ft | 450 kts | 336° |
| 2026-04-14 15:58 | -15.33045 | 41.05318 | 38002 ft | 449 kts | 336° |
| 2026-04-14 15:59 | -15.27091 | 41.03296 | 38026 ft | 450 kts | 336° |
| 2026-04-14 15:59 | -15.21157 | 41.01282 | 37991 ft | 453 kts | 336° |
| 2026-04-14 15:59 | -15.18166 | 41.00267 | 37854 ft | 453 kts | 336° |
| 2026-04-14 16:00 | -15.15177 | 40.99255 | 37275 ft | 450 kts | 336° |
| 2026-04-14 16:00 | -15.12197 | 40.98246 | 36375 ft | 453 kts | 337° |
| 2026-04-14 16:00 | -15.09170 | 40.97217 | 35149 ft | 464 kts | 338° |
| 2026-04-14 16:00 | -15.06068 | 40.96161 | 33783 ft | 476 kts | 338° |
| 2026-04-14 16:01 | -15.02872 | 40.95076 | 32431 ft | 486 kts | 339° |
| 2026-04-14 16:01 | -14.99685 | 40.94000 | 31886 ft | 475 kts | 339° |
| 2026-04-14 16:01 | -14.96613 | 40.92969 | 31806 ft | 453 kts | 339° |
| 2026-04-14 16:01 | -14.93680 | 40.91985 | 31694 ft | 434 kts | 338° |
| 2026-04-14 16:02 | -14.90863 | 40.91037 | 31598 ft | 416 kts | 338° |
| 2026-04-14 16:02 | -14.88157 | 40.90124 | 31360 ft | 404 kts | 338° |
| 2026-04-14 16:02 | -14.85500 | 40.89224 | 30812 ft | 401 kts | 338° |
| 2026-04-14 16:02 | -14.82840 | 40.88321 | 30200 ft | 401 kts | 338° |
| 2026-04-14 16:03 | -14.80211 | 40.87429 | 29605 ft | 398 kts | 339° |
| 2026-04-14 16:03 | -14.77592 | 40.86543 | 29109 ft | 393 kts | 339° |
| 2026-04-14 16:03 | -14.75014 | 40.85672 | 28627 ft | 387 kts | 339° |
| 2026-04-14 16:03 | -14.72466 | 40.84811 | 28099 ft | 383 kts | 339° |
| 2026-04-14 16:04 | -14.69943 | 40.83959 | 27552 ft | 380 kts | 339° |
| 2026-04-14 16:04 | -14.68282 | 40.83399 | 27213 ft | 378 kts | 339° |
| 2026-04-14 16:04 | -14.65797 | 40.82560 | 26724 ft | 374 kts | 340° |
| 2026-04-14 16:04 | -14.63342 | 40.81731 | 26255 ft | 370 kts | 340° |
| 2026-04-14 16:05 | -14.60906 | 40.80910 | 25779 ft | 366 kts | 340° |
| 2026-04-14 16:05 | -14.58498 | 40.80097 | 25303 ft | 363 kts | 340° |
| 2026-04-14 16:05 | -14.56104 | 40.79290 | 24851 ft | 360 kts | 340° |
| 2026-04-14 16:05 | -14.53730 | 40.78490 | 24422 ft | 356 kts | 340° |
| 2026-04-14 16:06 | -14.51406 | 40.77707 | 24174 ft | 346 kts | 340° |
| 2026-04-14 16:06 | -14.49153 | 40.76948 | 24059 ft | 332 kts | 340° |
| 2026-04-14 16:06 | -14.46978 | 40.76216 | 23183 ft | 334 kts | 340° |
| 2026-04-14 16:06 | -14.44685 | 40.75441 | 21087 ft | 365 kts | 341° |
| 2026-04-14 16:07 | -14.42362 | 40.74394 | 19264 ft | 368 kts | 325° |
| 2026-04-14 16:07 | -14.40620 | 40.72459 | 17406 ft | 370 kts | 299° |
| 2026-04-14 16:07 | -14.39890 | 40.69963 | 15609 ft | 362 kts | 273° |
| 2026-04-14 16:07 | -14.40327 | 40.67498 | 14111 ft | 337 kts | 245° |
| 2026-04-14 16:08 | -14.41711 | 40.65743 | 12729 ft | 303 kts | 214° |
| 2026-04-14 16:08 | -14.43586 | 40.65061 | 11424 ft | 278 kts | 181° |
| 2026-04-14 16:08 | -14.45393 | 40.65481 | 10264 ft | 260 kts | 155° |
| 2026-04-14 16:08 | -14.47017 | 40.66193 | 9113 ft | 248 kts | 158° |
| 2026-04-14 16:09 | -14.48682 | 40.66525 | 7885 ft | 244 kts | 179° |
| 2026-04-14 16:09 | -14.50346 | 40.66401 | 6824 ft | 235 kts | 181° |
| 2026-04-14 16:09 | -14.51900 | 40.66701 | 5650 ft | 228 kts | 150° |
| 2026-04-14 16:09 | -14.53123 | 40.67693 | 4608 ft | 220 kts | 139° |
| 2026-04-14 16:10 | -14.54296 | 40.68675 | 3550 ft | 215 kts | 141° |
| 2026-04-14 16:10 | -14.55480 | 40.69584 | 2505 ft | 210 kts | 145° |
| 2026-04-14 16:10 | -14.56740 | 40.70239 | 1898 ft | 194 kts | 168° |
| 2026-04-14 16:10 | -14.57987 | 40.70138 | 1764 ft | 167 kts | 187° |
| 2026-04-14 16:11 | -14.59115 | 40.70008 | 1622 ft | 163 kts | 183° |
| 2026-04-14 16:11 | -14.60261 | 40.69914 | 1546 ft | 166 kts | 182° |
| 2026-04-14 16:11 | -14.61412 | 40.69821 | 1527 ft | 164 kts | 182° |
| 2026-04-14 16:11 | -14.62541 | 40.69714 | 1491 ft | 161 kts | 182° |
| 2026-04-14 16:12 | -14.63646 | 40.69595 | 1514 ft | 158 kts | 183° |
| 2026-04-14 16:12 | -14.64733 | 40.69490 | 1504 ft | 155 kts | 183° |
| 2026-04-14 16:12 | -14.65805 | 40.69396 | 1500 ft | 158 kts | 182° |
| 2026-04-14 16:12 | -14.66892 | 40.69303 | 1508 ft | 156 kts | 183° |
| 2026-04-14 16:13 | -14.67977 | 40.69221 | 1515 ft | 157 kts | 182° |
| 2026-04-14 16:13 | -14.69029 | 40.69424 | 1481 ft | 155 kts | 143° |
| 2026-04-14 16:13 | -14.69453 | 40.70406 | 1525 ft | 163 kts | 89° |
| 2026-04-14 16:13 | -14.68862 | 40.71395 | 1500 ft | 173 kts | 34° |
| 2026-04-14 16:14 | -14.67673 | 40.71514 | 1518 ft | 181 kts | 340° |
| 2026-04-14 16:14 | -14.66607 | 40.70834 | 1525 ft | 181 kts | 327° |
| 2026-04-14 16:14 | -14.65494 | 40.70188 | 1473 ft | 183 kts | 334° |
| 2026-04-14 16:14 | -14.64283 | 40.70010 | 1484 ft | 174 kts | 13° |
| 2026-04-14 16:15 | -14.63080 | 40.70200 | 1517 ft | 177 kts | 7° |
| 2026-04-14 16:15 | -14.61868 | 40.70274 | 1406 ft | 175 kts | 5° |
| 2026-04-14 16:15 | -14.60637 | 40.70362 | 1302 ft | 176 kts | 7° |
| 2026-04-14 16:15 | -14.59425 | 40.70436 | 1185 ft | 171 kts | 6° |
| 2026-04-14 16:16 | -14.58267 | 40.70500 | 1216 ft | 166 kts | 5° |
| 2026-04-14 16:16 | -14.57133 | 40.70567 | 1199 ft | 161 kts | 6° |
| 2026-04-14 16:16 | -14.56021 | 40.70635 | 1188 ft | 160 kts | 5° |
| 2026-04-14 16:16 | -14.54899 | 40.70702 | 1215 ft | 163 kts | 6° |
| 2026-04-14 16:17 | -14.53762 | 40.70760 | 1178 ft | 163 kts | 5° |
| 2026-04-14 16:17 | -14.52660 | 40.70855 | 1003 ft | 155 kts | 9° |
| 2026-04-14 16:17 | -14.51577 | 40.70963 | 675 ft | 154 kts | 8° |
| 2026-04-14 16:17 | -14.50492 | 40.71075 | 483 ft | 159 kts | 6° |
| 2026-04-14 16:18 | -14.49475 | 40.71167 | 394 ft | 134 kts | 5° |
| 2026-04-14 16:18 | -14.48863 | 40.71217 | 373 ft | 30 kts | 4° |
| 2026-04-14 16:18 | -14.48776 | 40.71296 | 371 ft | 17 kts | 101° |
| 2026-04-14 16:18 | -14.48787 | 40.71335 | 372 ft | 0 kts | 106° |